sensor_id;sensor_type;location;lat;lon;timestamp;P1;durP1;ratioP1;P2;durP2;ratioP2
6209;SDS011;3138;52.550;13.148;2023-07-20T00:00:08;10.00;;;6.30;;
6209;SDS011;3138;52.550;13.148;2023-07-20T00:02:37;8.80;;;6.50;;
6209;SDS011;3138;52.550;13.148;2023-07-20T00:05:04;12.90;;;6.10;;
6209;SDS011;3138;52.550;13.148;2023-07-20T00:07:32;8.53;;;6.47;;
6209;SDS011;3138;52.550;13.148;2023-07-20T00:09:59;13.03;;;6.17;;
6209;SDS011;3138;52.550;13.148;2023-07-20T00:12:27;7.30;;;6.60;;
6209;SDS011;3138;52.550;13.148;2023-07-20T00:14:54;8.90;;;7.20;;
6209;SDS011;3138;52.550;13.148;2023-07-20T00:17:21;7.60;;;6.57;;
6209;SDS011;3138;52.550;13.148;2023-07-20T00:19:47;9.97;;;7.80;;
6209;SDS011;3138;52.550;13.148;2023-07-20T00:22:14;10.80;;;7.30;;
6209;SDS011;3138;52.550;13.148;2023-07-20T00:24:41;7.80;;;6.97;;
6209;SDS011;3138;52.550;13.148;2023-07-20T00:27:08;7.63;;;6.90;;
6209;SDS011;3138;52.550;13.148;2023-07-20T00:29:36;6.70;;;6.10;;
6209;SDS011;3138;52.550;13.148;2023-07-20T00:32:03;6.83;;;6.17;;
6209;SDS011;3138;52.550;13.148;2023-07-20T00:34:31;12.67;;;6.40;;
6209;SDS011;3138;52.550;13.148;2023-07-20T00:36:58;7.43;;;6.53;;
6209;SDS011;3138;52.550;13.148;2023-07-20T00:39:25;14.60;;;7.03;;
6209;SDS011;3138;52.550;13.148;2023-07-20T00:41:51;8.50;;;7.03;;
6209;SDS011;3138;52.550;13.148;2023-07-20T00:44:18;9.77;;;6.23;;
6209;SDS011;3138;52.550;13.148;2023-07-20T00:46:46;9.67;;;6.30;;
6209;SDS011;3138;52.550;13.148;2023-07-20T00:49:14;8.03;;;6.87;;
6209;SDS011;3138;52.550;13.148;2023-07-20T00:51:41;11.13;;;6.33;;
6209;SDS011;3138;52.550;13.148;2023-07-20T00:54:08;9.30;;;6.20;;
6209;SDS011;3138;52.550;13.148;2023-07-20T00:56:35;12.90;;;8.10;;
6209;SDS011;3138;52.550;13.148;2023-07-20T00:59:02;8.27;;;7.37;;
6209;SDS011;3138;52.550;13.148;2023-07-20T01:01:29;13.30;;;6.43;;
6209;SDS011;3138;52.550;13.148;2023-07-20T01:03:58;10.13;;;6.43;;
6209;SDS011;3138;52.550;13.148;2023-07-20T01:06:29;7.30;;;6.40;;
6209;SDS011;3138;52.550;13.148;2023-07-20T01:09:04;11.63;;;8.47;;
6209;SDS011;3138;52.550;13.148;2023-07-20T01:11:42;9.20;;;8.23;;
6209;SDS011;3138;52.550;13.148;2023-07-20T01:14:25;17.40;;;8.97;;
6209;SDS011;3138;52.550;13.148;2023-07-20T01:16:53;17.73;;;8.50;;
6209;SDS011;3138;52.550;13.148;2023-07-20T01:19:21;12.63;;;8.77;;
6209;SDS011;3138;52.550;13.148;2023-07-20T01:21:49;10.87;;;8.67;;
6209;SDS011;3138;52.550;13.148;2023-07-20T01:27:46;8.80;;;8.00;;
6209;SDS011;3138;52.550;13.148;2023-07-20T01:30:45;12.80;;;9.80;;
6209;SDS011;3138;52.550;13.148;2023-07-20T01:33:21;14.50;;;10.03;;
6209;SDS011;3138;52.550;13.148;2023-07-20T01:35:52;13.73;;;9.30;;
6209;SDS011;3138;52.550;13.148;2023-07-20T01:38:22;15.70;;;8.87;;
6209;SDS011;3138;52.550;13.148;2023-07-20T01:40:50;14.40;;;10.60;;
6209;SDS011;3138;52.550;13.148;2023-07-20T01:43:18;15.93;;;9.83;;
6209;SDS011;3138;52.550;13.148;2023-07-20T01:45:45;12.70;;;10.60;;
6209;SDS011;3138;52.550;13.148;2023-07-20T01:48:12;9.40;;;8.13;;
6209;SDS011;3138;52.550;13.148;2023-07-20T01:50:40;12.83;;;8.67;;
6209;SDS011;3138;52.550;13.148;2023-07-20T01:53:07;11.23;;;8.17;;
6209;SDS011;3138;52.550;13.148;2023-07-20T01:55:33;10.50;;;8.73;;
6209;SDS011;3138;52.550;13.148;2023-07-20T01:58:00;9.80;;;8.90;;
6209;SDS011;3138;52.550;13.148;2023-07-20T02:00:28;9.73;;;8.73;;
6209;SDS011;3138;52.550;13.148;2023-07-20T02:02:55;10.27;;;9.37;;
6209;SDS011;3138;52.550;13.148;2023-07-20T02:05:22;14.53;;;10.00;;
6209;SDS011;3138;52.550;13.148;2023-07-20T02:07:50;12.33;;;9.57;;
6209;SDS011;3138;52.550;13.148;2023-07-20T02:10:17;27.90;;;10.03;;
6209;SDS011;3138;52.550;13.148;2023-07-20T02:12:44;10.50;;;9.50;;
6209;SDS011;3138;52.550;13.148;2023-07-20T02:15:13;10.70;;;9.70;;
6209;SDS011;3138;52.550;13.148;2023-07-20T02:17:41;9.73;;;8.83;;
6209;SDS011;3138;52.550;13.148;2023-07-20T02:20:08;18.00;;;10.33;;
6209;SDS011;3138;52.550;13.148;2023-07-20T02:22:36;15.07;;;10.77;;
6209;SDS011;3138;52.550;13.148;2023-07-20T02:25:05;15.70;;;10.60;;
6209;SDS011;3138;52.550;13.148;2023-07-20T02:27:32;13.27;;;10.60;;
6209;SDS011;3138;52.550;13.148;2023-07-20T02:29:59;12.60;;;9.50;;
6209;SDS011;3138;52.550;13.148;2023-07-20T02:32:27;25.37;;;10.57;;
6209;SDS011;3138;52.550;13.148;2023-07-20T02:34:54;13.73;;;10.40;;
6209;SDS011;3138;52.550;13.148;2023-07-20T02:37:21;13.80;;;11.43;;
6209;SDS011;3138;52.550;13.148;2023-07-20T02:39:47;16.10;;;12.83;;
6209;SDS011;3138;52.550;13.148;2023-07-20T02:42:16;20.73;;;12.20;;
6209;SDS011;3138;52.550;13.148;2023-07-20T02:44:43;16.20;;;13.50;;
6209;SDS011;3138;52.550;13.148;2023-07-20T02:47:10;29.23;;;13.50;;
6209;SDS011;3138;52.550;13.148;2023-07-20T02:49:37;19.50;;;15.30;;
6209;SDS011;3138;52.550;13.148;2023-07-20T02:52:04;24.87;;;17.60;;
6209;SDS011;3138;52.550;13.148;2023-07-20T02:54:31;20.33;;;17.53;;
6209;SDS011;3138;52.550;13.148;2023-07-20T02:56:58;18.77;;;16.97;;
6209;SDS011;3138;52.550;13.148;2023-07-20T02:59:26;26.90;;;18.77;;
6209;SDS011;3138;52.550;13.148;2023-07-20T03:01:55;25.00;;;17.50;;
6209;SDS011;3138;52.550;13.148;2023-07-20T03:04:22;23.50;;;18.30;;
6209;SDS011;3138;52.550;13.148;2023-07-20T03:06:51;19.87;;;16.97;;
6209;SDS011;3138;52.550;13.148;2023-07-20T03:09:18;26.07;;;18.00;;
6209;SDS011;3138;52.550;13.148;2023-07-20T03:11:45;19.53;;;15.63;;
6209;SDS011;3138;52.550;13.148;2023-07-20T03:14:13;21.50;;;17.97;;
6209;SDS011;3138;52.550;13.148;2023-07-20T03:16:41;23.67;;;17.13;;
6209;SDS011;3138;52.550;13.148;2023-07-20T03:19:10;26.70;;;17.50;;
6209;SDS011;3138;52.550;13.148;2023-07-20T03:21:36;31.37;;;18.90;;
6209;SDS011;3138;52.550;13.148;2023-07-20T03:24:06;19.93;;;17.30;;
6209;SDS011;3138;52.550;13.148;2023-07-20T03:26:33;26.60;;;20.77;;
6209;SDS011;3138;52.550;13.148;2023-07-20T03:29:00;23.67;;;18.77;;
6209;SDS011;3138;52.550;13.148;2023-07-20T03:31:27;28.00;;;18.10;;
6209;SDS011;3138;52.550;13.148;2023-07-20T03:33:55;21.13;;;18.77;;
6209;SDS011;3138;52.550;13.148;2023-07-20T03:36:22;21.43;;;18.67;;
6209;SDS011;3138;52.550;13.148;2023-07-20T03:38:49;21.90;;;17.77;;
6209;SDS011;3138;52.550;13.148;2023-07-20T03:41:16;22.83;;;18.00;;
6209;SDS011;3138;52.550;13.148;2023-07-20T03:43:44;23.20;;;17.30;;
6209;SDS011;3138;52.550;13.148;2023-07-20T03:46:11;24.00;;;18.10;;
6209;SDS011;3138;52.550;13.148;2023-07-20T03:48:38;19.90;;;17.77;;
6209;SDS011;3138;52.550;13.148;2023-07-20T03:51:08;20.33;;;17.23;;
6209;SDS011;3138;52.550;13.148;2023-07-20T03:53:35;22.33;;;17.87;;
6209;SDS011;3138;52.550;13.148;2023-07-20T03:56:04;19.30;;;17.30;;
6209;SDS011;3138;52.550;13.148;2023-07-20T03:58:31;21.40;;;16.83;;
6209;SDS011;3138;52.550;13.148;2023-07-20T04:00:58;24.97;;;17.57;;
6209;SDS011;3138;52.550;13.148;2023-07-20T04:03:25;19.70;;;17.60;;
6209;SDS011;3138;52.550;13.148;2023-07-20T04:05:53;19.60;;;17.57;;
6209;SDS011;3138;52.550;13.148;2023-07-20T04:08:21;19.30;;;17.13;;
6209;SDS011;3138;52.550;13.148;2023-07-20T04:10:49;30.57;;;17.73;;
6209;SDS011;3138;52.550;13.148;2023-07-20T04:13:15;22.70;;;18.70;;
6209;SDS011;3138;52.550;13.148;2023-07-20T04:15:42;34.63;;;18.27;;
6209;SDS011;3138;52.550;13.148;2023-07-20T04:18:09;26.10;;;17.70;;
6209;SDS011;3138;52.550;13.148;2023-07-20T04:20:36;21.23;;;18.20;;
6209;SDS011;3138;52.550;13.148;2023-07-20T04:23:03;26.93;;;17.40;;
6209;SDS011;3138;52.550;13.148;2023-07-20T04:25:31;17.03;;;15.23;;
6209;SDS011;3138;52.550;13.148;2023-07-20T04:28:03;17.03;;;15.10;;
6209;SDS011;3138;52.550;13.148;2023-07-20T04:30:33;17.00;;;14.47;;
6209;SDS011;3138;52.550;13.148;2023-07-20T04:33:01;16.20;;;13.67;;
6209;SDS011;3138;52.550;13.148;2023-07-20T04:35:50;19.60;;;16.03;;
6209;SDS011;3138;52.550;13.148;2023-07-20T04:38:17;18.30;;;14.77;;
6209;SDS011;3138;52.550;13.148;2023-07-20T04:40:46;21.47;;;14.53;;
6209;SDS011;3138;52.550;13.148;2023-07-20T04:43:14;20.73;;;14.90;;
6209;SDS011;3138;52.550;13.148;2023-07-20T04:45:41;16.33;;;13.87;;
6209;SDS011;3138;52.550;13.148;2023-07-20T04:48:09;15.47;;;13.00;;
6209;SDS011;3138;52.550;13.148;2023-07-20T04:50:37;16.80;;;13.40;;
6209;SDS011;3138;52.550;13.148;2023-07-20T04:53:04;14.03;;;12.63;;
6209;SDS011;3138;52.550;13.148;2023-07-20T04:55:30;18.30;;;12.33;;
6209;SDS011;3138;52.550;13.148;2023-07-20T04:58:00;17.47;;;13.83;;
6209;SDS011;3138;52.550;13.148;2023-07-20T05:00:27;14.83;;;12.30;;
6209;SDS011;3138;52.550;13.148;2023-07-20T05:02:54;16.20;;;13.60;;
6209;SDS011;3138;52.550;13.148;2023-07-20T05:05:21;12.77;;;11.33;;
6209;SDS011;3138;52.550;13.148;2023-07-20T05:07:50;17.80;;;13.10;;
6209;SDS011;3138;52.550;13.148;2023-07-20T05:10:17;16.63;;;11.23;;
6209;SDS011;3138;52.550;13.148;2023-07-20T05:12:44;14.90;;;13.10;;
6209;SDS011;3138;52.550;13.148;2023-07-20T05:15:12;15.00;;;12.97;;
6209;SDS011;3138;52.550;13.148;2023-07-20T05:17:39;18.90;;;14.27;;
6209;SDS011;3138;52.550;13.148;2023-07-20T05:20:06;18.37;;;15.47;;
6209;SDS011;3138;52.550;13.148;2023-07-20T05:22:37;20.60;;;15.33;;
6209;SDS011;3138;52.550;13.148;2023-07-20T05:25:05;33.07;;;15.03;;
6209;SDS011;3138;52.550;13.148;2023-07-20T05:27:34;21.70;;;17.10;;
6209;SDS011;3138;52.550;13.148;2023-07-20T05:30:02;27.40;;;16.00;;
6209;SDS011;3138;52.550;13.148;2023-07-20T05:32:30;26.63;;;16.17;;
6209;SDS011;3138;52.550;13.148;2023-07-20T05:34:57;25.83;;;16.13;;
6209;SDS011;3138;52.550;13.148;2023-07-20T05:37:24;23.63;;;15.33;;
6209;SDS011;3138;52.550;13.148;2023-07-20T05:39:51;33.63;;;20.77;;
6209;SDS011;3138;52.550;13.148;2023-07-20T05:42:18;27.93;;;15.57;;
6209;SDS011;3138;52.550;13.148;2023-07-20T05:44:45;16.17;;;14.67;;
6209;SDS011;3138;52.550;13.148;2023-07-20T05:47:17;18.00;;;13.93;;
6209;SDS011;3138;52.550;13.148;2023-07-20T05:49:46;18.30;;;13.60;;
6209;SDS011;3138;52.550;13.148;2023-07-20T05:52:13;17.90;;;12.73;;
6209;SDS011;3138;52.550;13.148;2023-07-20T05:54:39;19.70;;;13.23;;
6209;SDS011;3138;52.550;13.148;2023-07-20T05:57:06;17.00;;;13.30;;
6209;SDS011;3138;52.550;13.148;2023-07-20T05:59:33;28.00;;;14.73;;
6209;SDS011;3138;52.550;13.148;2023-07-20T06:02:00;16.73;;;12.03;;
6209;SDS011;3138;52.550;13.148;2023-07-20T06:04:27;17.00;;;11.43;;
6209;SDS011;3138;52.550;13.148;2023-07-20T06:06:55;15.57;;;10.83;;
6209;SDS011;3138;52.550;13.148;2023-07-20T06:09:24;17.77;;;11.10;;
6209;SDS011;3138;52.550;13.148;2023-07-20T06:11:52;12.17;;;8.77;;
6209;SDS011;3138;52.550;13.148;2023-07-20T06:14:19;21.07;;;9.70;;
6209;SDS011;3138;52.550;13.148;2023-07-20T06:16:46;8.90;;;7.53;;
6209;SDS011;3138;52.550;13.148;2023-07-20T06:19:12;21.10;;;8.53;;
6209;SDS011;3138;52.550;13.148;2023-07-20T06:21:39;11.10;;;7.80;;
6209;SDS011;3138;52.550;13.148;2023-07-20T06:24:08;9.17;;;8.10;;
6209;SDS011;3138;52.550;13.148;2023-07-20T06:26:35;10.43;;;7.23;;
6209;SDS011;3138;52.550;13.148;2023-07-20T06:29:04;8.20;;;5.93;;
6209;SDS011;3138;52.550;13.148;2023-07-20T06:31:31;5.50;;;4.97;;
6209;SDS011;3138;52.550;13.148;2023-07-20T06:33:58;3.90;;;3.60;;
6209;SDS011;3138;52.550;13.148;2023-07-20T06:36:24;8.43;;;3.23;;
6209;SDS011;3138;52.550;13.148;2023-07-20T06:38:52;3.73;;;2.80;;
6209;SDS011;3138;52.550;13.148;2023-07-20T06:41:20;8.20;;;3.17;;
6209;SDS011;3138;52.550;13.148;2023-07-20T06:43:47;2.77;;;2.53;;
6209;SDS011;3138;52.550;13.148;2023-07-20T06:46:14;2.87;;;2.67;;
6209;SDS011;3138;52.550;13.148;2023-07-20T06:48:41;2.10;;;2.00;;
6209;SDS011;3138;52.550;13.148;2023-07-20T06:51:08;5.03;;;2.30;;
6209;SDS011;3138;52.550;13.148;2023-07-20T06:53:35;1.73;;;1.73;;
6209;SDS011;3138;52.550;13.148;2023-07-20T06:56:02;8.43;;;2.57;;
6209;SDS011;3138;52.550;13.148;2023-07-20T06:58:30;1.60;;;1.60;;
6209;SDS011;3138;52.550;13.148;2023-07-20T07:00:57;2.03;;;1.87;;
6209;SDS011;3138;52.550;13.148;2023-07-20T07:03:24;4.10;;;1.73;;
6209;SDS011;3138;52.550;13.148;2023-07-20T07:05:54;2.23;;;1.40;;
6209;SDS011;3138;52.550;13.148;2023-07-20T07:08:21;2.30;;;1.40;;
6209;SDS011;3138;52.550;13.148;2023-07-20T07:10:48;1.10;;;1.00;;
6209;SDS011;3138;52.550;13.148;2023-07-20T07:13:16;6.87;;;3.17;;
6209;SDS011;3138;52.550;13.148;2023-07-20T07:15:44;3.47;;;3.17;;
6209;SDS011;3138;52.550;13.148;2023-07-20T07:18:11;3.43;;;1.30;;
6209;SDS011;3138;52.550;13.148;2023-07-20T07:20:38;1.60;;;1.23;;
6209;SDS011;3138;52.550;13.148;2023-07-20T07:23:05;2.00;;;1.10;;
6209;SDS011;3138;52.550;13.148;2023-07-20T07:25:32;2.10;;;1.30;;
6209;SDS011;3138;52.550;13.148;2023-07-20T07:27:59;1.40;;;1.10;;
6209;SDS011;3138;52.550;13.148;2023-07-20T07:30:26;4.10;;;1.07;;
6209;SDS011;3138;52.550;13.148;2023-07-20T07:32:54;2.30;;;1.20;;
6209;SDS011;3138;52.550;13.148;2023-07-20T07:35:21;3.03;;;1.27;;
6209;SDS011;3138;52.550;13.148;2023-07-20T07:37:48;1.30;;;1.20;;
6209;SDS011;3138;52.550;13.148;2023-07-20T07:40:14;23.20;;;1.90;;
6209;SDS011;3138;52.550;13.148;2023-07-20T07:42:41;9.13;;;1.13;;
6209;SDS011;3138;52.550;13.148;2023-07-20T07:45:09;1.30;;;1.00;;
6209;SDS011;3138;52.550;13.148;2023-07-20T07:47:36;2.57;;;1.00;;
6209;SDS011;3138;52.550;13.148;2023-07-20T07:50:05;1.70;;;1.30;;
6209;SDS011;3138;52.550;13.148;2023-07-20T07:52:33;1.30;;;1.10;;
6209;SDS011;3138;52.550;13.148;2023-07-20T07:55:00;1.97;;;1.07;;
6209;SDS011;3138;52.550;13.148;2023-07-20T07:57:26;1.90;;;1.23;;
6209;SDS011;3138;52.550;13.148;2023-07-20T07:59:53;1.83;;;1.10;;
6209;SDS011;3138;52.550;13.148;2023-07-20T08:02:20;1.47;;;1.37;;
6209;SDS011;3138;52.550;13.148;2023-07-20T08:04:47;2.80;;;0.77;;
6209;SDS011;3138;52.550;13.148;2023-07-20T08:07:17;1.03;;;1.03;;
6209;SDS011;3138;52.550;13.148;2023-07-20T08:09:44;13.33;;;1.10;;
6209;SDS011;3138;52.550;13.148;2023-07-20T08:12:11;1.07;;;1.07;;
6209;SDS011;3138;52.550;13.148;2023-07-20T08:14:38;1.80;;;0.90;;
6209;SDS011;3138;52.550;13.148;2023-07-20T08:17:05;3.17;;;0.93;;
6209;SDS011;3138;52.550;13.148;2023-07-20T08:19:32;1.67;;;0.97;;
6209;SDS011;3138;52.550;13.148;2023-07-20T08:21:58;2.00;;;0.80;;
6209;SDS011;3138;52.550;13.148;2023-07-20T08:24:27;2.57;;;1.27;;
6209;SDS011;3138;52.550;13.148;2023-07-20T08:26:54;3.23;;;0.97;;
6209;SDS011;3138;52.550;13.148;2023-07-20T08:29:21;0.80;;;0.80;;
6209;SDS011;3138;52.550;13.148;2023-07-20T08:31:49;0.67;;;0.67;;
6209;SDS011;3138;52.550;13.148;2023-07-20T08:34:16;1.53;;;0.97;;
6209;SDS011;3138;52.550;13.148;2023-07-20T08:36:43;0.80;;;0.80;;
6209;SDS011;3138;52.550;13.148;2023-07-20T08:39:10;2.50;;;0.70;;
6209;SDS011;3138;52.550;13.148;2023-07-20T08:41:38;4.33;;;0.90;;
6209;SDS011;3138;52.550;13.148;2023-07-20T08:44:05;3.27;;;0.93;;
6209;SDS011;3138;52.550;13.148;2023-07-20T08:46:32;2.40;;;0.70;;
6209;SDS011;3138;52.550;13.148;2023-07-20T08:49:01;1.70;;;0.80;;
6209;SDS011;3138;52.550;13.148;2023-07-20T08:51:28;3.07;;;0.63;;
6209;SDS011;3138;52.550;13.148;2023-07-20T08:53:57;1.03;;;0.80;;
6209;SDS011;3138;52.550;13.148;2023-07-20T08:56:24;1.00;;;0.90;;
6209;SDS011;3138;52.550;13.148;2023-07-20T08:58:53;2.10;;;0.57;;
6209;SDS011;3138;52.550;13.148;2023-07-20T09:01:21;1.07;;;0.90;;
6209;SDS011;3138;52.550;13.148;2023-07-20T09:03:49;3.77;;;0.80;;
6209;SDS011;3138;52.550;13.148;2023-07-20T09:06:16;4.63;;;0.73;;
6209;SDS011;3138;52.550;13.148;2023-07-20T09:08:43;3.20;;;0.80;;
6209;SDS011;3138;52.550;13.148;2023-07-20T09:11:10;0.67;;;0.67;;
6209;SDS011;3138;52.550;13.148;2023-07-20T09:13:38;0.57;;;0.57;;
6209;SDS011;3138;52.550;13.148;2023-07-20T09:16:06;4.80;;;0.50;;
6209;SDS011;3138;52.550;13.148;2023-07-20T09:18:33;1.70;;;0.73;;
6209;SDS011;3138;52.550;13.148;2023-07-20T09:21:03;0.63;;;0.63;;
6209;SDS011;3138;52.550;13.148;2023-07-20T09:23:32;2.93;;;0.90;;
6209;SDS011;3138;52.550;13.148;2023-07-20T09:25:59;9.93;;;1.20;;
6209;SDS011;3138;52.550;13.148;2023-07-20T09:28:27;20.23;;;1.00;;
6209;SDS011;3138;52.550;13.148;2023-07-20T09:30:54;1.00;;;1.00;;
6209;SDS011;3138;52.550;13.148;2023-07-20T09:33:23;7.00;;;0.97;;
6209;SDS011;3138;52.550;13.148;2023-07-20T09:35:51;2.40;;;0.90;;
6209;SDS011;3138;52.550;13.148;2023-07-20T09:38:18;2.40;;;1.80;;
6209;SDS011;3138;52.550;13.148;2023-07-20T09:40:45;5.03;;;2.40;;
6209;SDS011;3138;52.550;13.148;2023-07-20T09:43:12;1.10;;;1.00;;
6209;SDS011;3138;52.550;13.148;2023-07-20T09:45:42;1.80;;;1.37;;
6209;SDS011;3138;52.550;13.148;2023-07-20T09:48:09;2.10;;;1.23;;
6209;SDS011;3138;52.550;13.148;2023-07-20T09:50:41;1.13;;;0.97;;
6209;SDS011;3138;52.550;13.148;2023-07-20T09:53:09;3.80;;;1.57;;
6209;SDS011;3138;52.550;13.148;2023-07-20T09:55:39;2.30;;;1.10;;
6209;SDS011;3138;52.550;13.148;2023-07-20T09:58:08;1.13;;;0.87;;
6209;SDS011;3138;52.550;13.148;2023-07-20T10:00:36;0.80;;;0.80;;
6209;SDS011;3138;52.550;13.148;2023-07-20T10:03:04;1.00;;;0.83;;
6209;SDS011;3138;52.550;13.148;2023-07-20T10:05:32;1.43;;;0.80;;
6209;SDS011;3138;52.550;13.148;2023-07-20T10:08:03;3.97;;;0.83;;
6209;SDS011;3138;52.550;13.148;2023-07-20T10:10:31;1.90;;;0.87;;
6209;SDS011;3138;52.550;13.148;2023-07-20T10:13:00;1.00;;;0.90;;
6209;SDS011;3138;52.550;13.148;2023-07-20T10:15:28;5.63;;;1.20;;
6209;SDS011;3138;52.550;13.148;2023-07-20T10:18:02;2.80;;;0.90;;
6209;SDS011;3138;52.550;13.148;2023-07-20T10:20:32;3.70;;;1.10;;
6209;SDS011;3138;52.550;13.148;2023-07-20T10:23:01;2.00;;;1.00;;
6209;SDS011;3138;52.550;13.148;2023-07-20T10:25:30;1.33;;;1.00;;
6209;SDS011;3138;52.550;13.148;2023-07-20T10:27:58;2.73;;;1.00;;
6209;SDS011;3138;52.550;13.148;2023-07-20T10:30:25;2.17;;;1.40;;
6209;SDS011;3138;52.550;13.148;2023-07-20T10:32:52;5.13;;;1.80;;
6209;SDS011;3138;52.550;13.148;2023-07-20T10:35:20;2.17;;;1.97;;
6209;SDS011;3138;52.550;13.148;2023-07-20T10:37:50;5.83;;;1.40;;
6209;SDS011;3138;52.550;13.148;2023-07-20T10:40:29;5.07;;;1.13;;
6209;SDS011;3138;52.550;13.148;2023-07-20T10:42:58;1.03;;;0.97;;
6209;SDS011;3138;52.550;13.148;2023-07-20T10:45:36;1.33;;;1.23;;
6209;SDS011;3138;52.550;13.148;2023-07-20T10:48:12;8.00;;;1.40;;
6209;SDS011;3138;52.550;13.148;2023-07-20T10:50:41;5.37;;;1.17;;
6209;SDS011;3138;52.550;13.148;2023-07-20T10:53:13;1.17;;;0.93;;
6209;SDS011;3138;52.550;13.148;2023-07-20T10:55:42;1.00;;;0.90;;
6209;SDS011;3138;52.550;13.148;2023-07-20T10:58:11;3.23;;;0.70;;
6209;SDS011;3138;52.550;13.148;2023-07-20T11:03:27;0.63;;;0.63;;
6209;SDS011;3138;52.550;13.148;2023-07-20T11:05:58;1.00;;;0.93;;
6209;SDS011;3138;52.550;13.148;2023-07-20T11:08:38;6.07;;;1.87;;
6209;SDS011;3138;52.550;13.148;2023-07-20T11:13:54;1.57;;;0.70;;
6209;SDS011;3138;52.550;13.148;2023-07-20T11:16:32;3.40;;;0.70;;
6209;SDS011;3138;52.550;13.148;2023-07-20T11:19:04;2.00;;;0.80;;
6209;SDS011;3138;52.550;13.148;2023-07-20T11:21:35;3.27;;;0.87;;
6209;SDS011;3138;52.550;13.148;2023-07-20T11:24:04;7.20;;;5.53;;
6209;SDS011;3138;52.550;13.148;2023-07-20T11:26:40;3.80;;;1.03;;
6209;SDS011;3138;52.550;13.148;2023-07-20T11:29:11;8.33;;;1.30;;
6209;SDS011;3138;52.550;13.148;2023-07-20T11:31:38;1.50;;;0.50;;
6209;SDS011;3138;52.550;13.148;2023-07-20T11:34:10;0.50;;;0.40;;
6209;SDS011;3138;52.550;13.148;2023-07-20T11:36:39;3.60;;;0.50;;
6209;SDS011;3138;52.550;13.148;2023-07-20T11:39:07;1.30;;;0.70;;
6209;SDS011;3138;52.550;13.148;2023-07-20T11:41:35;1.40;;;0.73;;
6209;SDS011;3138;52.550;13.148;2023-07-20T11:44:04;4.03;;;0.60;;
6209;SDS011;3138;52.550;13.148;2023-07-20T11:46:32;4.50;;;0.90;;
6209;SDS011;3138;52.550;13.148;2023-07-20T11:49:00;4.53;;;1.00;;
6209;SDS011;3138;52.550;13.148;2023-07-20T11:51:27;2.40;;;1.67;;
6209;SDS011;3138;52.550;13.148;2023-07-20T11:53:55;2.73;;;0.93;;
6209;SDS011;3138;52.550;13.148;2023-07-20T11:56:23;2.03;;;0.77;;
6209;SDS011;3138;52.550;13.148;2023-07-20T11:58:50;11.93;;;1.00;;
6209;SDS011;3138;52.550;13.148;2023-07-20T12:01:27;0.80;;;0.50;;
6209;SDS011;3138;52.550;13.148;2023-07-20T12:03:57;1.13;;;0.93;;
6209;SDS011;3138;52.550;13.148;2023-07-20T12:06:27;7.90;;;0.80;;
6209;SDS011;3138;52.550;13.148;2023-07-20T12:08:57;1.57;;;0.90;;
6209;SDS011;3138;52.550;13.148;2023-07-20T12:11:34;0.87;;;0.87;;
6209;SDS011;3138;52.550;13.148;2023-07-20T12:14:02;1.50;;;1.03;;
6209;SDS011;3138;52.550;13.148;2023-07-20T12:16:31;11.30;;;0.87;;
6209;SDS011;3138;52.550;13.148;2023-07-20T12:18:59;1.23;;;0.93;;
6209;SDS011;3138;52.550;13.148;2023-07-20T12:21:27;1.00;;;0.60;;
6209;SDS011;3138;52.550;13.148;2023-07-20T12:23:56;1.37;;;0.70;;
6209;SDS011;3138;52.550;13.148;2023-07-20T12:26:24;0.83;;;0.67;;
6209;SDS011;3138;52.550;13.148;2023-07-20T12:28:51;6.10;;;0.70;;
6209;SDS011;3138;52.550;13.148;2023-07-20T12:31:18;1.17;;;0.77;;
6209;SDS011;3138;52.550;13.148;2023-07-20T12:33:47;1.13;;;0.40;;
6209;SDS011;3138;52.550;13.148;2023-07-20T12:36:14;0.60;;;0.60;;
6209;SDS011;3138;52.550;13.148;2023-07-20T12:38:44;4.30;;;0.77;;
6209;SDS011;3138;52.550;13.148;2023-07-20T12:41:11;0.53;;;0.50;;
6209;SDS011;3138;52.550;13.148;2023-07-20T12:43:39;4.73;;;0.80;;
6209;SDS011;3138;52.550;13.148;2023-07-20T12:46:06;0.40;;;0.40;;
6209;SDS011;3138;52.550;13.148;2023-07-20T12:48:36;0.80;;;0.50;;
6209;SDS011;3138;52.550;13.148;2023-07-20T12:51:06;1.33;;;0.50;;
6209;SDS011;3138;52.550;13.148;2023-07-20T12:53:34;0.73;;;0.73;;
6209;SDS011;3138;52.550;13.148;2023-07-20T12:56:01;1.20;;;0.57;;
6209;SDS011;3138;52.550;13.148;2023-07-20T12:58:28;1.47;;;0.50;;
6209;SDS011;3138;52.550;13.148;2023-07-20T13:00:55;0.70;;;0.70;;
6209;SDS011;3138;52.550;13.148;2023-07-20T13:03:22;1.50;;;0.70;;
6209;SDS011;3138;52.550;13.148;2023-07-20T13:05:48;0.73;;;0.63;;
6209;SDS011;3138;52.550;13.148;2023-07-20T13:08:17;2.53;;;0.50;;
6209;SDS011;3138;52.550;13.148;2023-07-20T13:10:45;3.20;;;0.53;;
6209;SDS011;3138;52.550;13.148;2023-07-20T13:13:12;2.30;;;0.50;;
6209;SDS011;3138;52.550;13.148;2023-07-20T13:15:42;0.50;;;0.50;;
6209;SDS011;3138;52.550;13.148;2023-07-20T13:18:11;0.50;;;0.50;;
6209;SDS011;3138;52.550;13.148;2023-07-20T13:20:38;3.80;;;0.90;;
6209;SDS011;3138;52.550;13.148;2023-07-20T13:23:05;2.80;;;0.90;;
6209;SDS011;3138;52.550;13.148;2023-07-20T13:25:33;1.17;;;0.53;;
6209;SDS011;3138;52.550;13.148;2023-07-20T13:28:00;1.40;;;0.40;;
6209;SDS011;3138;52.550;13.148;2023-07-20T13:30:27;2.27;;;0.70;;
6209;SDS011;3138;52.550;13.148;2023-07-20T13:32:54;0.83;;;0.83;;
6209;SDS011;3138;52.550;13.148;2023-07-20T13:35:21;3.73;;;0.60;;
6209;SDS011;3138;52.550;13.148;2023-07-20T13:37:48;0.80;;;0.80;;
6209;SDS011;3138;52.550;13.148;2023-07-20T13:40:15;5.30;;;2.60;;
6209;SDS011;3138;52.550;13.148;2023-07-20T13:42:45;1.40;;;0.50;;
6209;SDS011;3138;52.550;13.148;2023-07-20T13:45:12;9.07;;;1.20;;
6209;SDS011;3138;52.550;13.148;2023-07-20T13:47:38;0.43;;;0.43;;
6209;SDS011;3138;52.550;13.148;2023-07-20T13:50:06;4.63;;;0.67;;
6209;SDS011;3138;52.550;13.148;2023-07-20T13:52:33;0.97;;;0.50;;
6209;SDS011;3138;52.550;13.148;2023-07-20T13:55:00;0.47;;;0.47;;
6209;SDS011;3138;52.550;13.148;2023-07-20T13:57:27;0.80;;;0.60;;
6209;SDS011;3138;52.550;13.148;2023-07-20T13:59:55;0.53;;;0.53;;
6209;SDS011;3138;52.550;13.148;2023-07-20T14:02:22;2.10;;;0.50;;
6209;SDS011;3138;52.550;13.148;2023-07-20T14:04:51;2.43;;;0.80;;
6209;SDS011;3138;52.550;13.148;2023-07-20T14:07:20;5.17;;;0.70;;
6209;SDS011;3138;52.550;13.148;2023-07-20T14:09:47;0.93;;;0.70;;
6209;SDS011;3138;52.550;13.148;2023-07-20T14:12:14;0.40;;;0.40;;
6209;SDS011;3138;52.550;13.148;2023-07-20T14:14:41;0.57;;;0.57;;
6209;SDS011;3138;52.550;13.148;2023-07-20T14:17:09;2.83;;;0.70;;
6209;SDS011;3138;52.550;13.148;2023-07-20T14:19:37;0.80;;;0.60;;
6209;SDS011;3138;52.550;13.148;2023-07-20T14:22:04;1.13;;;0.87;;
6209;SDS011;3138;52.550;13.148;2023-07-20T14:24:31;2.33;;;1.23;;
6209;SDS011;3138;52.550;13.148;2023-07-20T14:26:58;0.80;;;0.67;;
6209;SDS011;3138;52.550;13.148;2023-07-20T14:29:25;4.57;;;0.80;;
6209;SDS011;3138;52.550;13.148;2023-07-20T14:31:53;1.80;;;0.67;;
6209;SDS011;3138;52.550;13.148;2023-07-20T14:34:21;1.50;;;0.50;;
6209;SDS011;3138;52.550;13.148;2023-07-20T14:36:48;0.87;;;0.67;;
6209;SDS011;3138;52.550;13.148;2023-07-20T14:39:16;5.10;;;0.70;;
6209;SDS011;3138;52.550;13.148;2023-07-20T14:41:42;3.30;;;0.67;;
6209;SDS011;3138;52.550;13.148;2023-07-20T14:44:11;3.20;;;0.80;;
6209;SDS011;3138;52.550;13.148;2023-07-20T14:46:38;3.63;;;1.10;;
6209;SDS011;3138;52.550;13.148;2023-07-20T14:49:05;1.50;;;0.97;;
6209;SDS011;3138;52.550;13.148;2023-07-20T14:51:33;1.23;;;0.60;;
6209;SDS011;3138;52.550;13.148;2023-07-20T14:54:01;9.83;;;0.80;;
6209;SDS011;3138;52.550;13.148;2023-07-20T14:56:28;4.03;;;0.90;;
6209;SDS011;3138;52.550;13.148;2023-07-20T14:58:55;1.87;;;1.20;;
6209;SDS011;3138;52.550;13.148;2023-07-20T15:01:23;9.00;;;0.83;;
6209;SDS011;3138;52.550;13.148;2023-07-20T15:03:49;5.50;;;1.23;;
6209;SDS011;3138;52.550;13.148;2023-07-20T15:06:18;1.90;;;0.87;;